Time;durP1;ratioP1;P1;durP2;ratioP2;P2;SDS_P1;SDS_P2;PMS_P1;PMS_P2;Temp;Humidity;BMP_temperature;BMP_pressure;BME280_temperature;BME280_humidity;BME280_pressure;Samples;Min_cycle;Max_cycle;Signal;HPM_P1;HPM_P2
2023/07/15 00:01:37;;;;;;;3.22;2.92;;;18.20;78.70;;;;;;4953739;28;20298;-80
2023/07/15 00:04:07;;;;;;;3.60;2.75;;;18.20;79.00;;;;;;4958296;28;20035;-80
2023/07/15 00:06:36;;;;;;;5.25;3.08;;;18.20;79.10;;;;;;4953631;28;20042;-79
2023/07/15 00:09:02;;;;;;;4.57;3.00;;;18.10;79.10;;;;;;4960148;28;20035;-80
2023/07/15 00:11:31;;;;;;;3.40;3.20;;;18.10;79.30;;;;;;4964905;28;20468;-80
2023/07/15 00:13:58;;;;;;;5.95;2.92;;;18.00;79.70;;;;;;4956588;28;20513;-78
2023/07/15 00:16:25;;;;;;;3.30;3.00;;;18.00;80.00;;;;;;4966908;28;20515;-81
2023/07/15 00:18:50;;;;;;;4.85;3.00;;;18.00;80.00;;;;;;4954873;28;20486;-81
2023/07/15 00:21:20;;;;;;;3.75;3.00;;;17.90;80.00;;;;;;4961920;28;20023;-80
2023/07/15 00:23:57;;;;;;;6.45;3.22;;;17.80;80.00;;;;;;4969827;28;20023;-80
2023/07/15 00:26:25;;;;;;;5.72;3.33;;;17.80;80.10;;;;;;4970330;28;20094;-79
2023/07/15 00:28:52;;;;;;;6.90;3.20;;;17.70;80.50;;;;;;4962509;28;20059;-80
2023/07/15 00:31:19;;;;;;;4.13;3.05;;;17.70;81.00;;;;;;4968161;28;20031;-80
2023/07/15 00:33:46;;;;;;;4.72;3.15;;;17.60;81.20;;;;;;4970480;28;20134;-81
2023/07/15 00:36:13;;;;;;;3.58;3.08;;;17.60;82.30;;;;;;4969356;28;20085;-79
2023/07/15 00:38:40;;;;;;;4.90;3.03;;;17.60;81.50;;;;;;4966962;28;20035;-81
2023/07/15 00:41:14;;;;;;;5.22;2.92;;;17.50;81.40;;;;;;4987892;28;20035;-80
2023/07/15 00:44:03;;;;;;;3.97;2.97;;;17.50;81.50;;;;;;4963264;28;20023;-78
2023/07/15 00:46:41;;;;;;;4.05;3.10;;;17.50;82.00;;;;;;4974461;28;20038;-81
2023/07/15 00:49:13;;;;;;;4.88;3.08;;;17.50;82.10;;;;;;4945675;29;20036;-80
2023/07/15 00:51:43;;;;;;;4.18;2.95;;;17.50;82.20;;;;;;4968256;28;20133;-79
2023/07/15 00:54:13;;;;;;;3.25;2.92;;;17.50;82.30;;;;;;4964758;28;20054;-79
2023/07/15 00:56:40;;;;;;;3.38;3.08;;;17.40;82.40;;;;;;4967324;28;20134;-79
2023/07/15 00:59:09;;;;;;;3.45;3.10;;;17.50;82.60;;;;;;4957809;28;20070;-79
2023/07/15 01:01:36;;;;;;;5.72;3.10;;;17.40;82.30;;;;;;4963864;28;20070;-79
2023/07/15 01:04:05;;;;;;;3.05;2.75;;;17.40;82.30;;;;;;4987021;28;20066;-78
2023/07/15 01:06:33;;;;;;;2.97;2.67;;;17.40;82.50;;;;;;4961685;28;20126;-79
2023/07/15 01:09:00;;;;;;;5.80;3.15;;;17.40;83.10;;;;;;4956197;28;20045;-79
2023/07/15 01:11:29;;;;;;;3.85;3.10;;;17.30;83.00;;;;;;4962253;28;20035;-79
2023/07/15 01:13:56;;;;;;;4.40;3.05;;;17.30;83.30;;;;;;4979036;28;20031;-78
2023/07/15 01:16:23;;;;;;;3.25;2.90;;;17.30;83.50;;;;;;4957901;28;20035;-79
2023/07/15 01:18:49;;;;;;;4.05;3.10;;;17.30;83.60;;;;;;4962461;28;20049;-78
2023/07/15 01:21:15;;;;;;;5.47;3.42;;;17.20;83.90;;;;;;4962417;28;20046;-79
2023/07/15 01:23:41;;;;;;;5.10;3.22;;;17.20;83.90;;;;;;4967914;28;20043;-79
2023/07/15 01:26:07;;;;;;;4.82;3.35;;;17.20;84.30;;;;;;4965343;28;20050;-79
2023/07/15 01:28:36;;;;;;;3.47;3.17;;;17.10;84.30;;;;;;4967871;28;20037;-79
2023/07/15 01:31:04;;;;;;;4.38;3.15;;;17.10;84.50;;;;;;4964615;28;20038;-79
2023/07/15 01:33:31;;;;;;;4.30;3.10;;;17.00;84.80;;;;;;4971595;28;20045;-79
2023/07/15 01:35:58;;;;;;;4.18;3.33;;;17.00;85.10;;;;;;4957434;28;20038;-79
2023/07/15 01:38:24;;;;;;;4.43;3.05;;;17.00;85.30;;;;;;4970181;28;20472;-78
2023/07/15 01:40:51;;;;;;;3.45;2.97;;;17.00;85.80;;;;;;4971148;28;20061;-79
2023/07/15 01:43:17;;;;;;;3.60;3.30;;;16.90;85.40;;;;;;4963954;28;20393;-78
2023/07/15 01:45:46;;;;;;;3.60;3.30;;;16.90;85.30;;;;;;4963346;28;20114;-79
2023/07/15 01:48:12;;;;;;;3.45;3.15;;;16.90;85.70;;;;;;4947200;28;20074;-79
2023/07/15 01:50:39;;;;;;;7.68;3.85;;;16.80;86.20;;;;;;4960054;28;20078;-79
2023/07/15 01:53:05;;;;;;;6.13;3.08;;;16.80;86.10;;;;;;4965171;28;20042;-79
2023/07/15 01:55:31;;;;;;;5.47;3.17;;;16.80;86.50;;;;;;4958549;28;20532;-79
2023/07/15 01:57:57;;;;;;;4.93;3.33;;;16.80;86.60;;;;;;4961623;28;20102;-79
2023/07/15 02:00:23;;;;;;;4.22;3.25;;;16.80;86.70;;;;;;4963682;28;20036;-78
2023/07/15 02:02:49;;;;;;;6.28;3.47;;;16.80;86.50;;;;;;4966799;28;20539;-80
2023/07/15 02:05:16;;;;;;;3.35;2.70;;;16.80;86.70;;;;;;4959063;28;20540;-80
2023/07/15 02:07:42;;;;;;;3.97;2.80;;;16.80;86.70;;;;;;4959953;28;20039;-80
2023/07/15 02:10:08;;;;;;;4.53;3.15;;;16.80;86.60;;;;;;4947369;28;20039;-80
2023/07/15 02:12:34;;;;;;;5.07;2.90;;;16.90;86.50;;;;;;4966756;28;20122;-80
2023/07/15 02:15:00;;;;;;;5.25;3.25;;;16.90;86.80;;;;;;4952706;28;20050;-80
2023/07/15 02:17:26;;;;;;;3.83;3.22;;;16.90;86.80;;;;;;4960416;28;20510;-80
2023/07/15 02:19:54;;;;;;;3.90;3.00;;;16.90;86.80;;;;;;4962388;28;20027;-79
2023/07/15 02:22:19;;;;;;;4.90;3.22;;;16.90;86.80;;;;;;4958252;28;20299;-80
2023/07/15 02:24:45;;;;;;;3.30;3.00;;;17.00;86.60;;;;;;4953489;28;20033;-80
2023/07/15 02:27:11;;;;;;;5.03;3.20;;;17.00;86.70;;;;;;4966532;28;20031;-82
2023/07/15 02:29:37;;;;;;;3.85;3.20;;;17.00;86.70;;;;;;4965679;28;20054;-80
2023/07/15 02:32:04;;;;;;;3.58;3.03;;;17.00;86.60;;;;;;4957120;28;20031;-80
2023/07/15 02:34:30;;;;;;;6.47;3.30;;;17.00;86.50;;;;;;4964808;28;20088;-79
2023/07/15 02:36:56;;;;;;;3.08;2.78;;;17.00;86.60;;;;;;4962986;28;20481;-79
2023/07/15 02:39:21;;;;;;;3.35;3.05;;;17.00;86.50;;;;;;4961682;28;20502;-80
2023/07/15 02:41:47;;;;;;;3.25;2.90;;;17.00;86.60;;;;;;4960540;28;20141;-80
2023/07/15 02:44:13;;;;;;;3.13;2.83;;;17.00;86.70;;;;;;4958145;28;20031;-80
2023/07/15 02:46:39;;;;;;;3.60;3.30;;;17.00;86.80;;;;;;4966920;28;20039;-79
2023/07/15 02:49:06;;;;;;;3.70;3.17;;;17.00;87.70;;;;;;4966283;28;20106;-80
2023/07/15 02:51:33;;;;;;;5.78;3.25;;;17.00;87.00;;;;;;4965297;28;20069;-80
2023/07/15 02:54:02;;;;;;;3.58;3.25;;;17.00;87.10;;;;;;4971129;28;20040;-78
2023/07/15 02:56:28;;;;;;;4.40;3.00;;;16.90;87.30;;;;;;4961162;28;20039;-80
2023/07/15 02:58:54;;;;;;;4.55;2.92;;;16.90;87.30;;;;;;4963711;28;20039;-80
2023/07/15 03:01:21;;;;;;;3.70;3.30;;;16.90;87.60;;;;;;4962735;28;20030;-80
2023/07/15 03:03:47;;;;;;;4.00;3.05;;;16.90;87.70;;;;;;4964325;28;20023;-80
2023/07/15 03:06:13;;;;;;;4.97;3.20;;;16.90;87.90;;;;;;4974622;28;20036;-79
2023/07/15 03:08:45;;;;;;;3.63;3.10;;;16.90;87.80;;;;;;4979264;28;20103;-80
2023/07/15 03:11:11;;;;;;;4.85;3.10;;;16.90;87.70;;;;;;4946296;29;20085;-80
2023/07/15 03:13:37;;;;;;;3.50;2.88;;;16.90;87.80;;;;;;4939569;28;20059;-80
2023/07/15 03:16:04;;;;;;;3.35;2.97;;;16.80;87.70;;;;;;4947435;28;20035;-79
2023/07/15 03:18:33;;;;;;;3.35;3.13;;;16.90;88.00;;;;;;4959337;28;20063;-79
2023/07/15 03:20:59;;;;;;;3.65;2.88;;;16.90;88.10;;;;;;4939879;28;20049;-79
2023/07/15 03:23:24;;;;;;;3.83;2.95;;;16.90;88.40;;;;;;4954051;28;20035;-79
2023/07/15 03:25:50;;;;;;;3.10;2.80;;;16.90;88.20;;;;;;4959230;28;20035;-78
2023/07/15 03:28:19;;;;;;;3.95;3.30;;;16.90;88.20;;;;;;4948612;28;20050;-78
2023/07/15 03:30:48;;;;;;;5.05;3.40;;;16.90;88.40;;;;;;4953722;28;20122;-80
2023/07/15 03:33:14;;;;;;;4.82;3.33;;;16.90;88.80;;;;;;4965578;28;20035;-80
2023/07/15 03:35:44;;;;;;;5.65;3.40;;;16.90;89.30;;;;;;4954384;28;20031;-80
2023/07/15 03:38:09;;;;;;;3.45;3.15;;;16.90;89.40;;;;;;4955611;28;20529;-80
2023/07/15 03:40:35;;;;;;;3.83;3.50;;;16.80;89.40;;;;;;4960439;28;20059;-80
2023/07/15 03:43:01;;;;;;;5.28;3.55;;;16.80;89.30;;;;;;4962143;28;20514;-79
2023/07/15 03:45:27;;;;;;;3.80;3.40;;;16.80;90.10;;;;;;4964436;28;20039;-79
2023/07/15 03:47:53;;;;;;;4.03;3.47;;;16.70;90.30;;;;;;4970162;28;20606;-80
2023/07/15 03:50:19;;;;;;;4.15;3.75;;;16.70;90.30;;;;;;4960889;28;20025;-80
2023/07/15 03:52:44;;;;;;;4.43;3.47;;;16.70;90.30;;;;;;4961570;28;20031;-80
2023/07/15 03:55:10;;;;;;;5.82;3.95;;;16.70;90.50;;;;;;4961089;28;20379;-78
2023/07/15 03:57:36;;;;;;;4.80;3.50;;;16.70;90.70;;;;;;4959053;28;20027;-80
2023/07/15 04:00:06;;;;;;;6.40;3.85;;;16.70;90.60;;;;;;4964301;28;20018;-79
2023/07/15 04:02:39;;;;;;;4.43;3.72;;;16.70;91.20;;;;;;4953538;28;20421;-80
2023/07/15 04:05:05;;;;;;;4.25;3.38;;;16.70;90.90;;;;;;4964077;28;20069;-80
2023/07/15 04:07:31;;;;;;;4.38;3.78;;;16.70;90.90;;;;;;4958528;28;20034;-80
2023/07/15 04:09:57;;;;;;;6.13;3.50;;;16.70;91.10;;;;;;4959020;28;20082;-79
2023/07/15 04:12:23;;;;;;;6.50;3.83;;;16.70;91.20;;;;;;4964189;28;20051;-79
2023/07/15 04:14:50;;;;;;;5.03;3.72;;;16.70;91.20;;;;;;4960989;28;20670;-80
2023/07/15 04:17:15;;;;;;;6.80;3.67;;;16.80;91.20;;;;;;4955856;28;20027;-79
2023/07/15 04:19:41;;;;;;;4.85;3.63;;;16.80;91.20;;;;;;4964078;28;20039;-79
2023/07/15 04:22:07;;;;;;;3.75;3.45;;;16.80;91.30;;;;;;4971847;28;20045;-79
2023/07/15 04:24:33;;;;;;;4.53;3.70;;;16.90;91.60;;;;;;4961138;28;20035;-79
2023/07/15 04:26:59;;;;;;;7.25;3.97;;;16.80;91.70;;;;;;4958755;28;20506;-81
2023/07/15 04:29:25;;;;;;;3.78;3.47;;;16.90;91.80;;;;;;4960677;28;20027;-79
2023/07/15 04:31:50;;;;;;;4.78;3.50;;;16.90;91.90;;;;;;4961565;28;20051;-80
2023/07/15 04:34:16;;;;;;;4.30;3.55;;;16.90;91.70;;;;;;4973897;28;20034;-80
2023/07/15 04:36:42;;;;;;;4.45;4.05;;;17.00;91.60;;;;;;4973930;28;20046;-80
2023/07/15 04:39:08;;;;;;;5.80;3.53;;;17.10;91.70;;;;;;4969048;28;20045;-81
2023/07/15 04:41:34;;;;;;;9.68;4.47;;;17.10;92.20;;;;;;4963205;28;20031;-79
2023/07/15 04:43:59;;;;;;;6.03;4.80;;;17.00;92.60;;;;;;4964411;28;20577;-79
2023/07/15 04:46:25;;;;;;;4.78;3.92;;;17.10;92.70;;;;;;4959805;28;20564;-78
2023/07/15 04:48:51;;;;;;;5.18;3.65;;;17.10;92.90;;;;;;4969889;28;20063;-81
2023/07/15 04:51:16;;;;;;;4.10;3.70;;;17.10;92.90;;;;;;4968758;28;20047;-81
2023/07/15 04:53:43;;;;;;;4.68;3.90;;;17.20;93.30;;;;;;4985166;28;20037;-81
2023/07/15 04:56:10;;;;;;;6.35;3.83;;;17.20;92.90;;;;;;4960204;28;20055;-82
2023/07/15 04:58:36;;;;;;;4.95;3.42;;;17.30;93.10;;;;;;4971797;28;20039;-79
2023/07/15 05:01:01;;;;;;;4.38;3.63;;;17.40;93.00;;;;;;4972844;28;20019;-80
2023/07/15 05:03:27;;;;;;;4.80;3.70;;;17.50;92.80;;;;;;4971328;28;20042;-80
2023/07/15 05:05:53;;;;;;;4.10;3.70;;;17.60;92.80;;;;;;4969460;28;20038;-79
2023/07/15 05:08:22;;;;;;;4.22;3.35;;;17.60;92.90;;;;;;4958333;28;20034;-80
2023/07/15 05:10:48;;;;;;;5.45;4.10;;;17.70;92.60;;;;;;4962624;28;20046;-80
2023/07/15 05:13:15;;;;;;;6.35;3.60;;;17.80;92.90;;;;;;4956404;29;20042;-79
2023/07/15 05:15:41;;;;;;;5.75;3.80;;;17.90;92.70;;;;;;4961678;28;20023;-81
2023/07/15 05:18:08;;;;;;;5.78;3.58;;;18.00;92.60;;;;;;4967080;28;20451;-81
2023/07/15 05:20:34;;;;;;;9.40;3.95;;;18.10;92.60;;;;;;4956240;28;20139;-81
2023/07/15 05:23:04;;;;;;;4.75;3.65;;;18.20;92.30;;;;;;4960075;28;20038;-81
2023/07/15 05:25:48;;;;;;;5.18;3.67;;;18.30;92.10;;;;;;4964348;28;20101;-80
2023/07/15 05:28:14;;;;;;;4.90;3.90;;;18.40;92.10;;;;;;4961470;28;20662;-81
2023/07/15 05:30:40;;;;;;;4.18;3.60;;;18.60;92.00;;;;;;4961792;28;20039;-80
2023/07/15 05:33:06;;;;;;;4.03;3.70;;;18.70;91.80;;;;;;4957289;28;20039;-81
2023/07/15 05:35:31;;;;;;;4.22;3.55;;;18.80;91.60;;;;;;4957455;28;20042;-80
2023/07/15 05:37:57;;;;;;;7.53;4.38;;;19.00;91.40;;;;;;4957660;28;20449;-80
2023/07/15 05:40:23;;;;;;;4.10;3.70;;;19.20;91.10;;;;;;4959610;28;20050;-78
2023/07/15 05:42:49;;;;;;;4.63;3.58;;;19.40;90.90;;;;;;4968962;28;20066;-80
2023/07/15 05:45:14;;;;;;;5.30;3.58;;;19.60;90.20;;;;;;4966352;28;20046;-80
2023/07/15 05:47:40;;;;;;;3.83;3.35;;;19.90;90.10;;;;;;4957092;28;20453;-79
2023/07/15 05:50:08;;;;;;;4.20;3.80;;;20.20;88.80;;;;;;4955823;28;20110;-78
2023/07/15 05:52:34;;;;;;;3.80;3.22;;;20.60;88.10;;;;;;4958161;28;20106;-80
2023/07/15 05:55:00;;;;;;;4.25;3.58;;;20.90;86.70;;;;;;4958825;28;20082;-80
2023/07/15 05:57:26;;;;;;;4.88;3.72;;;21.20;86.00;;;;;;4956297;28;20038;-82
2023/07/15 05:59:52;;;;;;;4.85;3.60;;;21.50;84.10;;;;;;4947766;28;20219;-80
2023/07/15 06:02:18;;;;;;;4.93;3.15;;;21.80;83.10;;;;;;4947211;28;20186;-77
2023/07/15 06:04:50;;;;;;;4.53;3.13;;;22.10;81.30;;;;;;4954459;28;20085;-79
2023/07/15 06:07:16;;;;;;;5.18;3.38;;;22.50;82.40;;;;;;4959999;28;20039;-78
2023/07/15 06:09:42;;;;;;;3.42;3.13;;;22.90;80.60;;;;;;4960944;28;20523;-78
2023/07/15 06:12:08;;;;;;;4.57;3.03;;;23.10;78.70;;;;;;4958508;28;20032;-78
2023/07/15 06:14:33;;;;;;;5.47;3.00;;;23.20;77.20;;;;;;4959242;28;20394;-80
2023/07/15 06:16:59;;;;;;;3.10;2.83;;;23.30;76.80;;;;;;4960638;28;20537;-80
2023/07/15 06:19:25;;;;;;;3.30;3.00;;;23.60;75.90;;;;;;4955016;28;20031;-80
2023/07/15 06:21:54;;;;;;;4.88;3.33;;;23.80;75.10;;;;;;4954630;29;20070;-80
2023/07/15 06:24:46;;;;;;;4.97;3.10;;;24.00;74.30;;;;;;4949999;29;20173;-85
2023/07/15 06:27:12;;;;;;;4.00;3.15;;;24.30;74.60;;;;;;4955716;28;20505;-81
2023/07/15 06:29:37;;;;;;;3.30;2.95;;;24.50;72.40;;;;;;4955434;28;20040;-82
2023/07/15 06:32:04;;;;;;;3.55;3.08;;;24.60;73.20;;;;;;4947045;29;20050;-81
2023/07/15 06:34:31;;;;;;;4.18;3.15;;;24.90;72.30;;;;;;4959050;28;20047;-82
2023/07/15 06:36:57;;;;;;;3.13;2.88;;;25.20;71.90;;;;;;4957576;28;20716;-82
2023/07/15 06:39:23;;;;;;;8.38;3.47;;;25.40;70.00;;;;;;4956065;28;20039;-82
2023/07/15 06:41:52;;;;;;;3.63;3.33;;;25.40;69.70;;;;;;4963196;28;20118;-83
2023/07/15 06:44:18;;;;;;;4.05;3.10;;;25.30;69.70;;;;;;4955606;28;20130;-84
2023/07/15 06:46:44;;;;;;;4.18;2.90;;;25.20;70.80;;;;;;4960512;28;20537;-82
2023/07/15 06:49:09;;;;;;;6.70;3.25;;;25.10;70.50;;;;;;4965872;28;20035;-79
2023/07/15 06:51:35;;;;;;;8.48;3.47;;;25.20;70.90;;;;;;4955725;28;20530;-81
2023/07/15 06:54:01;;;;;;;4.05;3.30;;;25.40;70.30;;;;;;4956802;28;20042;-78
2023/07/15 06:56:28;;;;;;;5.82;2.97;;;25.60;70.80;;;;;;4957867;28;20035;-78
2023/07/15 06:58:54;;;;;;;3.50;3.20;;;25.60;70.10;;;;;;4963497;28;20031;-78
2023/07/15 07:01:20;;;;;;;8.50;3.00;;;25.80;69.50;;;;;;4954920;28;20031;-79
2023/07/15 07:03:46;;;;;;;4.32;2.90;;;26.00;69.20;;;;;;4952820;28;20031;-79
2023/07/15 07:06:12;;;;;;;4.65;2.88;;;26.50;68.20;;;;;;4953971;28;20433;-80
2023/07/15 07:08:37;;;;;;;4.65;2.50;;;26.90;67.30;;;;;;4953527;28;20038;-79
2023/07/15 07:11:03;;;;;;;3.38;2.67;;;27.40;67.50;;;;;;4955285;28;20039;-78
2023/07/15 07:13:29;;;;;;;4.72;3.00;;;27.80;67.40;;;;;;4953574;28;20039;-77
2023/07/15 07:16:09;;;;;;;3.22;2.92;;;28.30;64.20;;;;;;4959112;28;20035;-77
2023/07/15 07:18:48;;;;;;;5.03;2.88;;;28.40;64.90;;;;;;4969208;28;20026;-77
2023/07/15 07:21:14;;;;;;;4.28;2.88;;;28.70;64.60;;;;;;4953596;28;20039;-79
2023/07/15 07:23:40;;;;;;;3.08;2.63;;;28.90;64.00;;;;;;4956068;28;20034;-77
2023/07/15 07:26:05;;;;;;;3.33;2.75;;;29.20;61.10;;;;;;4955872;28;20031;-77
2023/07/15 07:28:40;;;;;;;3.97;2.65;;;29.30;60.80;;;;;;4954139;28;20035;-78
2023/07/15 07:31:06;;;;;;;5.47;2.75;;;29.50;59.80;;;;;;4952966;28;20039;-78
2023/07/15 07:33:31;;;;;;;2.80;2.50;;;29.60;59.60;;;;;;4952820;28;20023;-78
2023/07/15 07:35:57;;;;;;;4.38;3.22;;;29.80;61.50;;;;;;4961468;28;20489;-78
2023/07/15 07:38:23;;;;;;;5.72;2.65;;;29.90;61.20;;;;;;4958066;28;20181;-78
2023/07/15 07:40:48;;;;;;;3.08;2.60;;;30.00;59.60;;;;;;4959409;28;20030;-77
2023/07/15 07:43:14;;;;;;;2.58;2.35;;;29.70;58.80;;;;;;4954005;28;20046;-78
2023/07/15 07:45:40;;;;;;;2.60;2.40;;;29.50;58.70;;;;;;4960036;28;20034;-78
2023/07/15 07:48:06;;;;;;;4.65;2.63;;;29.30;62.40;;;;;;4952707;28;20634;-78
2023/07/15 07:50:34;;;;;;;2.50;2.30;;;29.40;60.80;;;;;;4957270;28;20050;-78
2023/07/15 07:52:59;;;;;;;3.63;2.60;;;29.40;61.30;;;;;;4960383;28;20120;-79
2023/07/15 07:55:25;;;;;;;3.75;2.33;;;29.50;61.40;;;;;;4958471;28;20063;-79
2023/07/15 07:57:51;;;;;;;3.50;2.60;;;29.50;59.30;;;;;;4954011;28;20035;-79
2023/07/15 08:00:17;;;;;;;3.45;2.65;;;29.50;59.60;;;;;;4962024;28;20042;-78
2023/07/15 08:02:42;;;;;;;6.97;3.05;;;29.10;59.60;;;;;;4958954;28;20019;-78
2023/07/15 08:05:08;;;;;;;3.35;2.38;;;29.20;59.70;;;;;;4966971;28;20035;-78
2023/07/15 08:07:34;;;;;;;2.67;2.47;;;29.30;58.10;;;;;;4965074;28;20471;-78
2023/07/15 08:10:00;;;;;;;3.00;2.50;;;29.20;57.90;;;;;;4966025;28;20109;-79
2023/07/15 08:12:26;;;;;;;3.25;2.40;;;29.20;58.40;;;;;;4956919;28;20467;-79
2023/07/15 08:14:51;;;;;;;3.17;2.70;;;29.10;58.60;;;;;;4963521;28;20046;-79
2023/07/15 08:17:36;;;;;;;2.47;2.25;;;29.40;59.00;;;;;;4963116;28;20047;-79
2023/07/15 08:20:03;;;;;;;5.43;2.97;;;29.60;60.80;;;;;;4962195;28;20098;-77
2023/07/15 08:22:28;;;;;;;4.10;2.60;;;30.10;58.00;;;;;;4959515;28;20471;-78
2023/07/15 08:24:54;;;;;;;2.80;2.45;;;30.50;57.10;;;;;;4966989;28;20031;-78
2023/07/15 08:27:20;;;;;;;3.65;1.83;;;30.90;56.50;;;;;;4964443;28;20066;-78
2023/07/15 08:29:46;;;;;;;3.58;1.77;;;31.30;55.10;;;;;;4961993;28;20063;-77
2023/07/15 08:32:13;;;;;;;3.63;2.05;;;31.40;51.50;;;;;;4955166;28;20071;-78
2023/07/15 08:34:39;;;;;;;2.80;2.00;;;31.80;54.40;;;;;;4956643;28;20094;-78
2023/07/15 08:37:05;;;;;;;2.25;1.88;;;32.00;52.40;;;;;;4959819;28;20031;-78
2023/07/15 08:39:31;;;;;;;3.58;1.92;;;32.20;48.90;;;;;;4961218;28;20111;-78
2023/07/15 08:42:00;;;;;;;2.88;2.13;;;32.30;51.30;;;;;;4957906;28;20110;-78
2023/07/15 08:44:25;;;;;;;2.47;1.90;;;32.50;51.70;;;;;;4959949;28;20116;-77
2023/07/15 08:46:53;;;;;;;2.45;2.08;;;32.60;51.80;;;;;;4958183;28;20577;-79
2023/07/15 08:49:20;;;;;;;2.90;2.05;;;32.60;48.50;;;;;;4956633;28;20035;-79
2023/07/15 08:51:46;;;;;;;4.18;2.28;;;32.50;49.60;;;;;;4958184;28;20206;-79
2023/07/15 08:54:13;;;;;;;3.83;2.05;;;32.50;51.30;;;;;;4958384;28;20163;-79
2023/07/15 08:56:39;;;;;;;3.03;2.00;;;32.40;49.00;;;;;;4958734;28;20569;-79
2023/07/15 08:59:06;;;;;;;3.33;2.00;;;32.30;51.20;;;;;;4961583;28;20039;-78
2023/07/15 09:01:35;;;;;;;2.78;2.13;;;31.90;49.00;;;;;;4960764;28;20031;-78
2023/07/15 09:04:01;;;;;;;2.35;1.90;;;31.60;49.00;;;;;;4961938;28;20045;-78
2023/07/15 09:06:28;;;;;;;3.15;2.10;;;31.40;52.70;;;;;;4961372;28;20043;-78
2023/07/15 09:08:55;;;;;;;3.67;2.10;;;31.40;52.80;;;;;;4963403;28;20066;-76
2023/07/15 09:11:21;;;;;;;2.22;2.00;;;31.40;49.50;;;;;;4965140;28;20090;-78
2023/07/15 09:13:46;;;;;;;1.75;1.65;;;31.40;50.10;;;;;;4966275;28;20042;-77
2023/07/15 09:16:13;;;;;;;2.45;1.55;;;31.50;51.20;;;;;;4962129;28;20073;-77
2023/07/15 09:18:40;;;;;;;3.97;1.98;;;31.60;50.70;;;;;;4959378;28;20492;-78
2023/07/15 09:21:11;;;;;;;2.08;1.48;;;31.50;48.20;;;;;;4960191;28;20025;-78
2023/07/15 09:23:39;;;;;;;2.05;1.80;;;31.60;50.90;;;;;;4959687;28;20034;-78
2023/07/15 09:26:05;;;;;;;2.47;1.55;;;31.60;50.20;;;;;;4956745;28;20409;-77
2023/07/15 09:28:31;;;;;;;2.00;1.75;;;31.60;52.90;;;;;;4954565;28;20042;-79
2023/07/15 09:30:57;;;;;;;2.92;1.80;;;31.60;48.60;;;;;;4960979;28;20031;-80
2023/07/15 09:33:39;;;;;;;2.40;1.70;;;31.60;51.00;;;;;;4954845;28;20067;-79
2023/07/15 09:36:06;;;;;;;1.70;1.55;;;31.60;50.30;;;;;;4958203;28;20053;-78
2023/07/15 09:38:37;;;;;;;2.75;1.73;;;31.50;47.40;;;;;;4955569;28;20094;-79
2023/07/15 09:41:05;;;;;;;2.85;1.58;;;31.50;50.50;;;;;;4950386;28;20059;-77
2023/07/15 09:43:44;;;;;;;1.75;1.50;;;31.50;48.10;;;;;;4953031;28;20482;-78
2023/07/15 09:46:12;;;;;;;2.17;1.55;;;31.40;48.40;;;;;;4958362;28;20054;-77
2023/07/15 09:48:38;;;;;;;3.25;1.52;;;31.30;47.60;;;;;;4958365;28;20110;-80
2023/07/15 09:51:04;;;;;;;1.50;1.40;;;31.30;50.80;;;;;;4955047;28;20074;-78
2023/07/15 09:53:31;;;;;;;1.35;1.25;;;31.40;53.80;;;;;;4955992;28;20035;-78
2023/07/15 09:55:57;;;;;;;1.70;1.60;;;31.40;51.20;;;;;;4964597;28;20658;-79
2023/07/15 09:58:24;;;;;;;2.78;1.38;;;31.40;48.70;;;;;;4956169;28;20473;-78
2023/07/15 10:00:59;;;;;;;4.57;1.50;;;31.40;48.30;;;;;;4957985;28;20028;-78
2023/07/15 10:03:51;;;;;;;1.70;1.60;;;31.40;48.20;;;;;;4957452;28;20120;-77
2023/07/15 10:06:17;;;;;;;2.85;1.42;;;31.20;47.40;;;;;;4957810;28;20031;-79
2023/07/15 10:08:44;;;;;;;3.88;1.63;;;31.00;48.10;;;;;;4955755;28;20054;-77
2023/07/15 10:11:11;;;;;;;1.95;1.30;;;31.10;50.90;;;;;;4963320;28;20035;-79
2023/07/15 10:13:37;;;;;;;1.42;1.33;;;31.30;51.40;;;;;;4956810;28;20035;-78
2023/07/15 10:16:04;;;;;;;1.63;1.20;;;31.30;50.10;;;;;;4958479;28;20031;-79
2023/07/15 10:18:33;;;;;;;1.52;1.33;;;31.40;48.00;;;;;;4949982;28;20106;-80
2023/07/15 10:21:04;;;;;;;3.13;1.45;;;31.50;49.40;;;;;;4953982;28;20027;-80
2023/07/15 10:23:32;;;;;;;1.33;1.23;;;31.60;49.10;;;;;;4958407;28;20093;-79
2023/07/15 10:26:08;;;;;;;3.47;1.50;;;31.80;50.40;;;;;;4980942;28;20089;-81
2023/07/15 10:28:36;;;;;;;1.50;1.40;;;31.90;48.60;;;;;;4962061;28;20223;-77
2023/07/15 10:31:05;;;;;;;3.47;1.38;;;32.00;49.00;;;;;;4961241;28;20046;-78
2023/07/15 10:33:31;;;;;;;1.33;1.17;;;32.00;47.10;;;;;;4964306;28;20035;-78
2023/07/15 10:35:56;;;;;;;2.35;1.08;;;32.10;48.60;;;;;;4953191;28;20165;-78
2023/07/15 10:38:29;;;;;;;1.60;1.50;;;32.10;46.80;;;;;;4962036;28;20175;-79
2023/07/15 10:40:57;;;;;;;2.38;1.13;;;32.10;47.70;;;;;;4964777;28;20058;-79
2023/07/15 10:43:39;;;;;;;1.88;1.20;;;32.20;49.30;;;;;;4957633;28;20034;-77
2023/07/15 10:46:07;;;;;;;1.38;1.20;;;32.20;50.10;;;;;;4965849;28;20396;-78
2023/07/15 10:48:34;;;;;;;2.38;1.33;;;32.20;48.20;;;;;;4976817;28;20179;-78
2023/07/15 10:51:03;;;;;;;1.42;1.33;;;32.30;48.00;;;;;;4962168;28;20038;-79
2023/07/15 10:53:29;;;;;;;2.95;1.50;;;32.30;45.20;;;;;;4962050;28;20174;-78
2023/07/15 10:56:02;;;;;;;2.17;1.48;;;32.10;45.80;;;;;;4963599;28;20074;-78
2023/07/15 10:58:30;;;;;;;2.33;1.05;;;32.00;47.50;;;;;;4953274;28;20054;-78
2023/07/15 11:01:00;;;;;;;1.30;1.20;;;32.10;49.00;;;;;;4950675;28;20036;-77
2023/07/15 11:03:27;;;;;;;1.55;1.45;;;32.20;46.20;;;;;;4945253;28;20031;-77
2023/07/15 11:05:56;;;;;;;1.65;1.40;;;32.20;46.20;;;;;;4945173;28;20027;-77
2023/07/15 11:08:21;;;;;;;2.08;1.50;;;32.30;46.70;;;;;;4958257;28;20041;-78
2023/07/15 11:10:49;;;;;;;1.50;1.40;;;32.40;48.20;;;;;;4965706;28;20094;-77
2023/07/15 11:13:16;;;;;;;1.60;1.45;;;32.50;47.70;;;;;;4958987;28;20437;-78
2023/07/15 11:15:46;;;;;;;2.17;1.50;;;32.50;46.30;;;;;;4963323;28;20023;-79
2023/07/15 11:18:16;;;;;;;2.08;1.27;;;32.50;45.00;;;;;;4959272;28;20023;-79
2023/07/15 11:20:44;;;;;;;1.40;1.30;;;32.30;47.60;;;;;;4960918;28;20029;-79
2023/07/15 11:23:10;;;;;;;1.70;1.42;;;32.40;48.20;;;;;;4958176;28;20043;-79
2023/07/15 11:25:37;;;;;;;1.77;1.10;;;32.50;48.60;;;;;;4958829;28;20093;-78
2023/07/15 11:28:03;;;;;;;1.40;1.30;;;32.60;46.80;;;;;;4959611;28;20114;-78
2023/07/15 11:30:43;;;;;;;1.98;1.23;;;32.70;47.30;;;;;;4958309;28;20461;-79
2023/07/15 11:33:11;;;;;;;1.27;1.15;;;32.70;46.60;;;;;;4961883;28;20510;-80
2023/07/15 11:35:39;;;;;;;2.45;1.50;;;32.80;46.10;;;;;;4955770;28;20769;-79
2023/07/15 11:38:11;;;;;;;1.67;1.42;;;32.80;47.00;;;;;;4963932;28;20027;-78
2023/07/15 11:40:59;;;;;;;1.98;1.17;;;33.00;47.80;;;;;;4960370;28;20110;-78
2023/07/15 11:43:26;;;;;;;1.38;1.27;;;33.10;48.00;;;;;;4958504;28;20023;-78
2023/07/15 11:45:56;;;;;;;2.90;1.33;;;33.20;47.90;;;;;;4962348;28;20556;-78
2023/07/15 11:48:27;;;;;;;3.15;1.52;;;33.20;44.20;;;;;;4959349;28;20042;-77
2023/07/15 11:50:57;;;;;;;2.05;1.35;;;33.30;46.20;;;;;;4962541;28;20511;-78
2023/07/15 11:53:23;;;;;;;1.73;1.10;;;33.30;44.20;;;;;;4960148;28;20035;-78
2023/07/15 11:55:49;;;;;;;1.17;1.10;;;33.40;46.70;;;;;;4961698;28;20490;-78
2023/07/15 11:58:43;;;;;;;1.48;1.13;;;33.70;48.00;;;;;;4964114;28;20035;-78
2023/07/15 12:01:17;;;;;;;3.17;1.17;;;33.90;45.90;;;;;;4961849;28;20027;-78
2023/07/15 12:03:44;;;;;;;1.48;1.38;;;34.10;44.20;;;;;;4955496;28;20379;-79
2023/07/15 12:06:18;;;;;;;1.70;1.30;;;34.20;44.40;;;;;;4961821;28;20125;-78
2023/07/15 12:09:11;;;;;;;1.50;1.25;;;34.30;42.20;;;;;;4954926;28;20559;-79
2023/07/15 12:11:38;;;;;;;2.85;1.27;;;34.20;41.30;;;;;;4962156;28;20069;-78
2023/07/15 12:14:10;;;;;;;1.85;1.40;;;34.20;43.00;;;;;;4957388;28;20043;-81
2023/07/15 12:16:37;;;;;;;1.40;1.30;;;34.30;44.70;;;;;;4955956;28;20398;-79
2023/07/15 12:19:04;;;;;;;2.20;1.40;;;34.40;44.10;;;;;;4960302;28;20042;-79
2023/07/15 12:21:30;;;;;;;1.67;1.50;;;34.50;44.10;;;;;;4958546;28;20038;-79
2023/07/15 12:23:57;;;;;;;2.70;1.67;;;34.70;44.40;;;;;;4943953;28;20110;-77
2023/07/15 12:26:23;;;;;;;2.47;1.60;;;34.80;40.30;;;;;;4956242;28;20403;-78
2023/07/15 12:28:49;;;;;;;2.60;1.17;;;34.50;41.90;;;;;;4948651;28;20122;-78
2023/07/15 12:31:16;;;;;;;1.60;1.50;;;34.60;41.20;;;;;;4949047;28;20111;-79
2023/07/15 12:33:43;;;;;;;2.95;1.60;;;34.70;43.40;;;;;;4951865;28;20039;-78
2023/07/15 12:36:11;;;;;;;2.55;1.48;;;35.00;42.20;;;;;;4948004;28;20639;-79
2023/07/15 12:38:38;;;;;;;2.33;1.30;;;35.10;40.60;;;;;;4951462;28;20094;-79
2023/07/15 12:41:05;;;;;;;1.55;1.45;;;35.10;39.50;;;;;;4956206;28;20050;-79
2023/07/15 12:43:31;;;;;;;2.85;1.17;;;35.10;40.80;;;;;;4963172;28;20027;-78
2023/07/15 12:45:58;;;;;;;1.50;1.35;;;35.10;42.50;;;;;;4958636;28;20049;-79
2023/07/15 12:48:23;;;;;;;1.50;1.40;;;35.00;42.60;;;;;;4961789;28;20031;-78
2023/07/15 12:50:49;;;;;;;1.67;1.25;;;35.00;42.10;;;;;;4955586;28;20030;-78